createdAt,value
2023-02-02T00:00:45.144Z,102463.09
2023-02-02T00:03:11.604Z,102462.22
2023-02-02T00:05:38.062Z,102459.53
2023-02-02T00:08:04.859Z,102480.25
2023-02-02T00:10:31.284Z,102478.50
2023-02-02T00:12:57.865Z,102472.41
2023-02-02T00:15:25.067Z,102479.41
2023-02-02T00:17:51.725Z,102473.34
2023-02-02T00:20:20.446Z,102476.75
2023-02-02T00:22:46.886Z,102465.38
2023-02-02T00:25:13.377Z,102450.63
2023-02-02T00:27:39.853Z,102461.69
2023-02-02T00:30:07.310Z,102452.91
2023-02-02T00:32:33.914Z,102455.22
2023-02-02T00:35:00.421Z,102443.81
2023-02-02T00:37:26.908Z,102435.84
2023-02-02T00:39:53.382Z,102439.94
2023-02-02T00:42:19.879Z,102446.59
2023-02-02T00:44:46.313Z,102447.25
2023-02-02T00:47:12.770Z,102451.31
2023-02-02T00:49:39.276Z,102454.53
2023-02-02T00:52:05.769Z,102446.69
2023-02-02T00:54:32.343Z,102450.81
2023-02-02T00:56:58.881Z,102440.16
2023-02-02T00:59:25.365Z,102443.56
2023-02-02T01:01:52.021Z,102444.28
2023-02-02T01:04:18.522Z,102438.94
2023-02-02T01:06:46.203Z,102437.97
2023-02-02T01:09:12.964Z,102446.59
2023-02-02T01:11:39.429Z,102437.00
2023-02-02T01:14:06.096Z,102442.16
2023-02-02T01:16:34.277Z,102437.75
2023-02-02T01:19:00.815Z,102433.31
2023-02-02T01:21:27.609Z,102423.78
2023-02-02T01:23:54.064Z,102427.13
2023-02-02T01:26:20.516Z,102424.53
2023-02-02T01:28:47.289Z,102428.72
2023-02-02T01:31:17.147Z,102421.47
2023-02-02T01:33:45.209Z,102427.56
2023-02-02T01:36:15.512Z,102428.28
2023-02-02T01:38:43.260Z,102436.81
2023-02-02T01:41:14.110Z,102441.00
2023-02-02T01:43:43.650Z,102447.78
2023-02-02T01:46:18.923Z,102445.16
2023-02-02T01:48:54.953Z,102449.31
2023-02-02T01:51:25.187Z,102462.16
2023-02-02T01:53:54.597Z,102445.53
2023-02-02T01:56:46.813Z,102446.44
2023-02-02T01:59:16.333Z,102451.59
2023-02-02T02:01:46.350Z,102441.06
2023-02-02T02:04:13.560Z,102449.84
2023-02-02T02:06:40.146Z,102454.16
2023-02-02T02:09:08.276Z,102450.63
2023-02-02T02:11:37.148Z,102460.06
2023-02-02T02:14:07.995Z,102452.16
2023-02-02T02:16:46.709Z,102459.16
2023-02-02T02:19:31.845Z,102462.50
2023-02-02T02:22:14.516Z,102462.47
2023-02-02T02:25:01.266Z,102458.03
2023-02-02T02:28:22.604Z,102457.97
2023-02-02T02:31:07.323Z,102453.59
2023-02-02T02:33:53.462Z,102459.50
2023-02-02T02:36:25.111Z,102458.59
2023-02-02T02:39:13.295Z,102456.66
2023-02-02T02:41:45.986Z,102452.31
2023-02-02T02:44:16.198Z,102456.44
2023-02-02T02:46:43.909Z,102463.50
2023-02-02T02:49:12.686Z,102454.81
2023-02-02T02:51:50.239Z,102449.47
2023-02-02T02:54:32.642Z,102464.31
2023-02-02T02:57:22.753Z,102462.47
2023-02-02T03:00:02.841Z,102462.47
2023-02-02T03:03:01.406Z,102462.47
2023-02-02T03:05:44.826Z,102456.50
2023-02-02T03:08:27.311Z,102439.19
2023-02-02T03:10:56.599Z,102448.66
2023-02-02T03:13:23.509Z,102446.28
2023-02-02T03:15:50.005Z,102446.34
2023-02-02T03:18:19.080Z,102444.44
2023-02-02T03:20:45.984Z,102454.06
2023-02-02T03:23:13.237Z,102445.38
2023-02-02T03:25:39.762Z,102458.38
2023-02-02T03:28:06.983Z,102470.41
2023-02-02T03:30:34.401Z,102468.69
2023-02-02T03:33:00.924Z,102462.72
2023-02-02T03:35:27.367Z,102467.06
2023-02-02T03:37:53.792Z,102473.16
2023-02-02T03:40:20.328Z,102460.28
2023-02-02T03:42:46.760Z,102451.66
2023-02-02T03:45:13.505Z,102452.53
2023-02-02T03:47:39.975Z,102457.69
2023-02-02T03:50:09.799Z,102457.69
2023-02-02T03:52:36.395Z,102456.03
2023-02-02T03:55:03.401Z,102456.03
2023-02-02T03:57:29.830Z,102445.78
2023-02-02T03:59:56.322Z,102459.56
2023-02-02T04:02:23.251Z,102463.09
2023-02-02T04:04:49.706Z,102457.94
2023-02-02T04:07:16.236Z,102469.25
2023-02-02T04:09:42.759Z,102466.72
2023-02-02T04:12:09.249Z,102459.91
2023-02-02T04:14:35.803Z,102459.16
2023-02-02T04:17:02.291Z,102461.81
2023-02-02T04:19:28.764Z,102461.91
2023-02-02T04:21:55.228Z,102465.44
2023-02-02T04:24:21.762Z,102461.28
2023-02-02T04:26:48.281Z,102462.28
2023-02-02T04:29:14.802Z,102452.88
2023-02-02T04:31:41.309Z,102459.00
2023-02-02T04:34:07.754Z,102457.34
2023-02-02T04:36:34.380Z,102459.09
2023-02-02T04:39:00.892Z,102441.09
2023-02-02T04:41:27.388Z,102441.03
2023-02-02T04:43:53.834Z,102445.28
2023-02-02T04:46:20.351Z,102449.50
2023-02-02T04:48:48.787Z,102438.13
2023-02-02T04:51:15.486Z,102443.41
2023-02-02T04:53:42.862Z,102438.25
2023-02-02T04:56:17.911Z,102428.56
2023-02-02T04:58:45.337Z,102445.16
2023-02-02T05:01:17.421Z,102446.00
2023-02-02T05:03:44.858Z,102441.66
2023-02-02T05:06:13.496Z,102434.72
2023-02-02T05:08:41.219Z,102443.28
2023-02-02T05:11:12.337Z,102444.09
2023-02-02T05:13:38.818Z,102450.06
2023-02-02T05:16:06.573Z,102438.84
2023-02-02T05:18:33.331Z,102443.06
2023-02-02T05:21:00.759Z,102438.78
2023-02-02T05:23:27.434Z,102443.94
2023-02-02T05:25:54.975Z,102447.31
2023-02-02T05:28:23.128Z,102452.56
2023-02-02T05:30:50.110Z,102448.28
2023-02-02T05:33:17.121Z,102458.69
2023-02-02T05:35:48.195Z,102451.84
2023-02-02T05:38:15.744Z,102443.28
2023-02-02T05:40:42.508Z,102447.56
2023-02-02T05:43:09.013Z,102460.53
2023-02-02T05:45:35.468Z,102457.88
2023-02-02T05:48:01.972Z,102467.31
2023-02-02T05:50:28.462Z,102472.47
2023-02-02T05:53:03.220Z,102464.66
2023-02-02T05:55:29.794Z,102476.63
2023-02-02T05:57:56.192Z,102476.56
2023-02-02T06:00:22.938Z,102473.94
2023-02-02T06:02:49.412Z,102469.53
2023-02-02T06:05:15.995Z,102474.69
2023-02-02T06:07:42.487Z,102475.53
2023-02-02T06:10:09.263Z,102483.19
2023-02-02T06:12:35.691Z,102485.69
2023-02-02T06:15:02.180Z,102492.50
2023-02-02T06:17:28.629Z,102492.38
2023-02-02T06:19:55.122Z,102501.81
2023-02-02T06:22:21.648Z,102501.63
2023-02-02T06:24:48.192Z,102504.19
2023-02-02T06:27:14.635Z,102505.88
2023-02-02T06:29:41.126Z,102498.94
2023-02-02T06:32:07.616Z,102508.28
2023-02-02T06:34:34.095Z,102495.41
2023-02-02T06:37:00.580Z,102508.28
2023-02-02T06:39:27.078Z,102496.22
2023-02-02T06:41:53.516Z,102502.34
2023-02-02T06:44:20.100Z,102505.72
2023-02-02T06:46:46.768Z,102511.75
2023-02-02T06:49:13.409Z,102506.66
2023-02-02T06:51:39.860Z,102511.81
2023-02-02T06:54:06.302Z,102518.75
2023-02-02T06:56:32.805Z,102512.75
2023-02-02T06:58:59.246Z,102531.75
2023-02-02T07:01:25.792Z,102525.78
2023-02-02T07:03:53.341Z,102526.72
2023-02-02T07:06:25.636Z,102519.00
2023-02-02T07:08:57.613Z,102528.59
2023-02-02T07:11:29.057Z,102522.66
2023-02-02T07:13:55.661Z,102525.31
2023-02-02T07:16:22.128Z,102527.19
2023-02-02T07:18:48.689Z,102518.63
2023-02-02T07:21:20.842Z,102515.94
2023-02-02T07:23:47.432Z,102517.81
2023-02-02T07:26:15.125Z,102522.16
2023-02-02T07:28:42.158Z,102527.31
2023-02-02T07:31:18.228Z,102531.59
2023-02-02T07:33:45.819Z,102538.44
2023-02-02T07:36:14.251Z,102536.75
2023-02-02T07:38:40.735Z,102546.25
2023-02-02T07:41:07.244Z,102542.78
2023-02-02T07:43:33.788Z,102536.00
2023-02-02T07:46:02.145Z,102536.00
2023-02-02T07:48:32.047Z,102537.88
2023-02-02T07:51:00.051Z,102532.78
2023-02-02T07:53:27.603Z,102539.88
2023-02-02T07:55:54.213Z,102542.56
2023-02-02T07:58:20.659Z,102541.84
2023-02-02T08:00:47.263Z,102539.34
2023-02-02T08:03:13.782Z,102535.22
2023-02-02T08:05:40.393Z,102536.13
2023-02-02T08:08:06.905Z,102537.06
2023-02-02T08:10:33.371Z,102543.19
2023-02-02T08:12:59.904Z,102542.34
2023-02-02T08:15:26.630Z,102536.34
2023-02-02T08:17:53.251Z,102539.06
2023-02-02T08:20:19.711Z,102544.34
2023-02-02T08:22:46.208Z,102530.63
2023-02-02T08:25:12.649Z,102534.25
2023-02-02T08:27:39.296Z,102541.28
2023-02-02T08:30:06.187Z,102543.16
2023-02-02T08:32:32.691Z,102544.22
2023-02-02T08:34:59.130Z,102545.25
2023-02-02T08:37:25.609Z,102543.72
2023-02-02T08:39:52.037Z,102542.19
2023-02-02T08:42:18.495Z,102542.41
2023-02-02T08:46:02.798Z,102545.22
2023-02-02T08:47:31.467Z,102541.22
2023-02-02T08:49:57.965Z,102539.69
2023-02-02T08:52:25.857Z,102546.84
2023-02-02T08:54:52.418Z,102553.13
2023-02-02T08:57:18.892Z,102550.97
2023-02-02T08:59:45.325Z,102561.78
2023-02-02T09:02:11.835Z,102564.25
2023-02-02T09:04:38.311Z,102563.31
2023-02-02T09:07:04.777Z,102552.88
2023-02-02T09:09:31.207Z,102557.97
2023-02-02T09:11:57.732Z,102555.25
2023-02-02T09:14:24.254Z,102563.69
2023-02-02T09:16:50.914Z,102558.31
2023-02-02T09:19:17.427Z,102562.31
2023-02-02T09:21:43.898Z,102567.03
2023-02-02T09:24:12.558Z,102559.41
2023-02-02T09:26:39.730Z,102562.00
2023-02-02T09:29:08.530Z,102565.34
2023-02-02T09:31:37.222Z,102567.81
2023-02-02T09:34:06.252Z,102565.91
2023-02-02T09:36:33.530Z,102571.06
2023-02-02T09:39:00.318Z,102571.78
2023-02-02T09:41:38.682Z,102577.16
2023-02-02T09:44:24.427Z,102587.22
2023-02-02T09:47:21.448Z,102579.25
2023-02-02T09:50:16.078Z,102582.75
2023-02-02T09:52:45.369Z,102580.00
2023-02-02T09:55:14.132Z,102580.56
2023-02-02T09:57:48.855Z,102576.00
2023-02-02T10:00:36.231Z,102594.03
2023-02-02T10:03:22.680Z,102577.03
2023-02-02T10:05:57.378Z,102593.25
2023-02-02T10:08:38.542Z,102586.72
2023-02-02T10:11:25.924Z,102578.34
2023-02-02T10:13:56.748Z,102592.47
2023-02-02T10:16:24.827Z,102586.47
2023-02-02T10:19:04.586Z,102579.53
2023-02-02T10:21:59.170Z,102588.34
2023-02-02T10:24:29.275Z,102588.44
2023-02-02T10:26:59.674Z,102600.78
2023-02-02T10:29:48.613Z,102593.03
2023-02-02T10:32:28.672Z,102606.31
2023-02-02T10:35:18.238Z,102616.97
2023-02-02T10:38:13.448Z,102610.25
2023-02-02T10:40:46.113Z,102622.66
2023-02-02T10:43:27.511Z,102627.91
2023-02-02T10:45:56.037Z,102608.66
2023-02-02T10:48:26.510Z,102614.72
2023-02-02T10:50:57.803Z,102610.25
2023-02-02T10:53:28.401Z,102602.31
2023-02-02T10:56:08.721Z,102610.00
2023-02-02T10:58:54.834Z,102617.78
2023-02-02T11:01:21.351Z,102606.47
2023-02-02T11:03:48.659Z,102606.47
2023-02-02T11:06:16.219Z,102600.38
2023-02-02T11:08:44.625Z,102601.25
2023-02-02T11:11:17.410Z,102589.94
2023-02-02T11:13:50.723Z,102606.47
2023-02-02T11:16:17.284Z,102608.16
2023-02-02T11:18:45.004Z,102604.69
2023-02-02T11:21:24.446Z,102605.41
2023-02-02T11:23:53.799Z,102595.72
2023-02-02T11:26:21.908Z,102605.19
2023-02-02T11:28:49.557Z,102600.72
2023-02-02T11:31:35.599Z,102603.22
2023-02-02T11:34:28.528Z,102602.28
2023-02-02T11:37:21.377Z,102610.88
2023-02-02T11:39:48.061Z,102596.94
2023-02-02T11:42:20.808Z,102593.56
2023-02-02T11:44:53.468Z,102595.41
2023-02-02T11:47:30.359Z,102599.69
2023-02-02T11:49:58.795Z,102598.81
2023-02-02T11:52:29.641Z,102593.59
2023-02-02T11:55:01.419Z,102599.78
2023-02-02T11:57:29.098Z,102605.22
2023-02-02T12:00:10.901Z,102604.41
2023-02-02T12:02:37.496Z,102599.19
2023-02-02T12:05:10.010Z,102605.19
2023-02-02T12:07:36.648Z,102600.78
2023-02-02T12:10:18.788Z,102596.34
2023-02-02T12:12:54.662Z,102601.59
2023-02-02T12:15:25.930Z,102592.91
2023-02-02T12:18:01.908Z,102600.78
2023-02-02T12:21:00.596Z,102585.13
2023-02-02T12:23:55.057Z,102576.31
2023-02-02T12:26:27.276Z,102591.88
2023-02-02T12:29:16.785Z,102576.91
2023-02-02T12:32:20.767Z,102590.59
2023-02-02T12:35:05.198Z,102582.56
2023-02-02T12:37:57.552Z,102584.22
2023-02-02T12:40:42.372Z,102580.66
2023-02-02T12:43:18.996Z,102566.63
2023-02-02T12:46:06.980Z,102576.16
2023-02-02T12:48:45.680Z,102582.91
2023-02-02T12:51:50.351Z,102593.25
2023-02-02T12:54:47.866Z,102580.09
2023-02-02T12:57:54.871Z,102579.09
2023-02-02T13:00:38.855Z,102572.97
2023-02-02T13:03:15.842Z,102576.34
2023-02-02T13:05:50.310Z,102573.63
2023-02-02T13:08:23.558Z,102568.44
2023-02-02T13:10:54.787Z,102571.84
2023-02-02T13:13:36.110Z,102572.66
2023-02-02T13:16:21.034Z,102570.84
2023-02-02T13:18:54.944Z,102569.09
2023-02-02T13:21:24.600Z,102563.00
2023-02-02T13:23:55.651Z,102570.69
2023-02-02T13:26:44.201Z,102565.38
2023-02-02T13:29:10.679Z,102570.59
2023-02-02T13:31:51.716Z,102571.47
2023-02-02T13:34:24.399Z,102557.59
2023-02-02T13:36:59.324Z,102555.06
2023-02-02T13:39:34.854Z,102549.91
2023-02-02T13:42:03.154Z,102553.41
2023-02-02T13:44:38.234Z,102545.59
2023-02-02T13:47:34.976Z,102536.13
2023-02-02T13:50:09.809Z,102545.78
2023-02-02T13:52:45.111Z,102532.78
2023-02-02T13:55:26.901Z,102541.44
2023-02-02T13:58:19.302Z,102537.16
2023-02-02T14:00:49.610Z,102532.84
2023-02-02T14:03:48.335Z,102531.13
2023-02-02T14:06:22.268Z,102531.25
2023-02-02T14:09:01.448Z,102527.91
2023-02-02T14:11:32.662Z,102535.88
2023-02-02T14:14:21.261Z,102536.03
2023-02-02T14:16:49.703Z,102539.66
2023-02-02T14:19:41.552Z,102526.78
2023-02-02T14:22:11.481Z,102532.13
2023-02-02T14:24:37.903Z,102533.91
2023-02-02T14:27:07.496Z,102538.22
2023-02-02T14:29:35.209Z,102530.38
2023-02-02T14:32:37.324Z,102526.88
2023-02-02T14:35:12.915Z,102522.59
2023-02-02T14:37:51.156Z,102512.19
2023-02-02T14:40:53.029Z,102520.06
2023-02-02T14:43:22.556Z,102517.59
2023-02-02T14:46:14.976Z,102521.94
2023-02-02T14:48:46.561Z,102521.09
2023-02-02T14:51:18.992Z,102516.72
2023-02-02T14:53:54.903Z,102527.84
2023-02-02T14:56:39.983Z,102519.03
2023-02-02T14:59:06.957Z,102527.59
2023-02-02T15:01:35.493Z,102540.50
2023-02-02T15:04:23.927Z,102534.34
2023-02-02T15:06:51.884Z,102521.16
2023-02-02T15:09:21.137Z,102542.91
2023-02-02T15:12:01.655Z,102545.41
2023-02-02T15:14:28.401Z,102548.75
2023-02-02T15:16:55.643Z,102552.09
2023-02-02T15:19:34.219Z,102537.09
2023-02-02T15:22:18.432Z,102544.91
2023-02-02T15:24:45.822Z,102551.84
2023-02-02T15:27:18.393Z,102529.09
2023-02-02T15:29:49.338Z,102542.13
2023-02-02T15:32:18.873Z,102534.25
2023-02-02T15:34:48.242Z,102549.00
2023-02-02T15:37:19.962Z,102555.00
2023-02-02T15:39:51.007Z,102554.16
2023-02-02T15:42:41.192Z,102561.03
2023-02-02T15:45:27.704Z,102567.06
2023-02-02T15:47:55.636Z,102563.56
2023-02-02T15:50:22.354Z,102572.13
2023-02-02T15:52:50.983Z,102570.31
2023-02-02T15:55:30.435Z,102564.19
2023-02-02T15:57:57.182Z,102562.34
2023-02-02T16:00:32.722Z,102552.69
2023-02-02T16:02:59.200Z,102575.22
2023-02-02T16:05:31.440Z,102564.72
2023-02-02T16:08:05.610Z,102555.84
2023-02-02T16:10:33.807Z,102564.47
2023-02-02T16:13:00.348Z,102560.03
2023-02-02T16:15:28.917Z,102551.19
2023-02-02T16:17:59.218Z,102559.84
2023-02-02T16:20:28.153Z,102563.25
2023-02-02T16:22:57.324Z,102556.97
2023-02-02T16:25:24.154Z,102567.34
2023-02-02T16:27:51.190Z,102583.72
2023-02-02T16:30:47.777Z,102572.34
2023-02-02T16:33:30.824Z,102573.97
2023-02-02T16:35:57.724Z,102565.19
2023-02-02T16:38:35.154Z,102566.84
2023-02-02T16:41:13.581Z,102571.94
2023-02-02T16:43:42.084Z,102573.56
2023-02-02T16:46:14.003Z,102563.00
2023-02-02T16:48:58.245Z,102570.75
2023-02-02T16:51:28.737Z,102568.03
2023-02-02T16:54:06.322Z,102560.19
2023-02-02T16:56:38.299Z,102555.66
2023-02-02T16:59:13.767Z,102564.38
2023-02-02T17:01:48.522Z,102552.09
2023-02-02T17:04:26.031Z,102552.97
2023-02-02T17:06:55.130Z,102552.88
2023-02-02T17:09:33.137Z,102553.75
2023-02-02T17:12:32.144Z,102553.69
2023-02-02T17:15:02.898Z,102558.00
2023-02-02T17:17:29.394Z,102562.31
2023-02-02T17:19:56.318Z,102565.69
2023-02-02T17:22:25.941Z,102546.53
2023-02-02T17:24:53.040Z,102556.13
2023-02-02T17:27:29.009Z,102558.72
2023-02-02T17:29:56.825Z,102543.16
2023-02-02T17:32:23.345Z,102544.09
2023-02-02T17:34:49.849Z,102546.59
2023-02-02T17:37:16.370Z,102538.84
2023-02-02T17:39:42.985Z,102546.59
2023-02-02T17:42:35.793Z,102539.59
2023-02-02T17:45:02.270Z,102536.16
2023-02-02T17:47:28.824Z,102528.34
2023-02-02T17:49:55.417Z,102549.09
2023-02-02T17:52:21.901Z,102549.91
2023-02-02T17:54:48.395Z,102547.25
2023-02-02T17:57:14.899Z,102563.81
2023-02-02T17:59:41.378Z,102567.28
2023-02-02T18:02:12.699Z,102562.00
2023-02-02T18:04:39.237Z,102564.75
2023-02-02T18:07:05.760Z,102558.72
2023-02-02T18:09:33.790Z,102558.72
2023-02-02T18:12:00.446Z,102574.31
2023-02-02T18:14:26.973Z,102570.88
2023-02-02T18:16:53.459Z,102579.53
2023-02-02T18:19:19.963Z,102573.53
2023-02-02T18:21:46.423Z,102568.34
2023-02-02T18:24:13.601Z,102568.38
2023-02-02T18:26:40.107Z,102571.03
2023-02-02T18:29:06.925Z,102555.44
2023-02-02T18:31:33.515Z,102571.03
2023-02-02T18:34:00.226Z,102572.75
2023-02-02T18:36:26.712Z,102569.25
2023-02-02T18:38:53.217Z,102580.53
2023-02-02T18:41:20.490Z,102573.63
2023-02-02T18:43:47.511Z,102571.84
2023-02-02T18:46:15.791Z,102575.34
2023-02-02T18:48:42.907Z,102553.69
2023-02-02T18:51:15.040Z,102555.44
2023-02-02T18:53:46.129Z,102558.88
2023-02-02T18:56:14.689Z,102560.50
2023-02-02T18:58:41.579Z,102555.41
2023-02-02T19:01:16.347Z,102558.78
2023-02-02T19:03:47.128Z,102576.06
2023-02-02T19:06:13.760Z,102565.69
2023-02-02T19:08:40.239Z,102570.88
2023-02-02T19:11:15.146Z,102563.94
2023-02-02T19:13:41.652Z,102564.75
2023-02-02T19:16:40.516Z,102563.84
2023-02-02T19:19:22.008Z,102565.53
2023-02-02T19:21:48.697Z,102584.53
2023-02-02T19:24:15.147Z,102574.16
2023-02-02T19:26:46.164Z,102594.81
2023-02-02T19:29:23.315Z,102611.25
2023-02-02T19:31:58.662Z,102605.91
2023-02-02T19:34:25.239Z,102625.94
2023-02-02T19:36:51.773Z,102631.13
2023-02-02T19:39:29.703Z,102644.97
2023-02-02T19:42:00.418Z,102629.28
2023-02-02T19:44:31.016Z,102634.53
2023-02-02T19:46:57.829Z,102644.97
2023-02-02T19:49:32.283Z,102631.06
2023-02-02T19:51:59.709Z,102631.00
2023-02-02T19:54:28.024Z,102639.72
2023-02-02T19:57:13.757Z,102642.31
2023-02-02T19:59:41.716Z,102648.28
2023-02-02T20:02:37.367Z,102648.28
2023-02-02T20:05:17.588Z,102638.63
2023-02-02T20:07:44.116Z,102638.78
2023-02-02T20:10:23.781Z,102642.19
2023-02-02T20:12:51.758Z,102655.16
2023-02-02T20:15:34.421Z,102656.91
2023-02-02T20:18:05.147Z,102656.91
2023-02-02T20:20:43.767Z,102667.28
2023-02-02T20:23:35.934Z,102655.88
2023-02-02T20:26:07.728Z,102638.47
2023-02-02T20:28:45.103Z,102634.31
2023-02-02T20:31:18.279Z,102635.91
2023-02-02T20:33:51.957Z,102641.22
2023-02-02T20:36:30.131Z,102637.59
2023-02-02T20:39:00.058Z,102647.19
2023-02-02T20:41:26.826Z,102643.69
2023-02-02T20:43:53.315Z,102657.56
2023-02-02T20:46:19.866Z,102656.66
2023-02-02T20:48:46.385Z,102660.09
2023-02-02T20:51:12.910Z,102629.78
2023-02-02T20:53:39.614Z,102621.97
2023-02-02T20:56:06.297Z,102620.13
2023-02-02T20:58:32.821Z,102624.28
2023-02-02T21:00:59.367Z,102643.25
2023-02-02T21:03:25.881Z,102642.28
2023-02-02T21:05:52.409Z,102637.94
2023-02-02T21:08:18.857Z,102643.97
2023-02-02T21:10:45.318Z,102628.31
2023-02-02T21:13:11.817Z,102625.72
2023-02-02T21:15:38.330Z,102625.66
2023-02-02T21:18:04.846Z,102635.94
2023-02-02T21:20:31.379Z,102628.09
2023-02-02T21:22:57.850Z,102620.22
2023-02-02T21:25:25.063Z,102610.59
2023-02-02T21:27:57.462Z,102613.03
2023-02-02T21:30:23.937Z,102605.94
2023-02-02T21:32:50.472Z,102596.28
2023-02-02T21:35:17.311Z,102584.06
2023-02-02T21:37:43.882Z,102594.25
2023-02-02T21:40:15.205Z,102598.34
2023-02-02T21:42:47.689Z,102585.94
2023-02-02T21:45:20.207Z,102584.91
2023-02-02T21:47:53.744Z,102588.16
2023-02-02T21:50:42.406Z,102608.88
2023-02-02T21:53:20.683Z,102598.25
2023-02-02T21:55:50.070Z,102615.50
2023-02-02T21:58:35.062Z,102608.34
2023-02-02T22:01:22.553Z,102615.28
2023-02-02T22:03:49.407Z,102612.72
2023-02-02T22:06:28.407Z,102601.47
2023-02-02T22:09:26.101Z,102591.94
2023-02-02T22:12:00.518Z,102579.81
2023-02-02T22:14:40.900Z,102577.16
2023-02-02T22:17:34.165Z,102568.38
2023-02-02T22:20:07.175Z,102559.69
2023-02-02T22:22:36.180Z,102562.16
2023-02-02T22:25:33.430Z,102562.91
2023-02-02T22:28:13.088Z,102571.31
2023-02-02T22:30:41.650Z,102586.00
2023-02-02T22:33:10.457Z,102592.81
2023-02-02T22:35:37.946Z,102603.97
2023-02-02T22:38:05.010Z,102616.78
2023-02-02T22:40:31.606Z,102609.00
2023-02-02T22:43:05.274Z,102609.72
2023-02-02T22:45:32.028Z,102620.94
2023-02-02T22:47:58.624Z,102619.97
2023-02-02T22:50:28.235Z,102627.63
2023-02-02T22:52:55.134Z,102631.84
2023-02-02T22:55:22.224Z,102637.81
2023-02-02T22:57:48.794Z,102649.78
2023-02-02T23:00:21.729Z,102654.84
2023-02-02T23:02:48.576Z,102659.09
2023-02-02T23:05:16.970Z,102665.09
2023-02-02T23:07:44.015Z,102679.72
2023-02-02T23:10:17.183Z,102676.31
2023-02-02T23:12:44.274Z,102679.81
2023-02-02T23:15:12.289Z,102673.84
2023-02-02T23:17:38.990Z,102669.66
2023-02-02T23:20:07.990Z,102660.06
2023-02-02T23:22:34.545Z,102659.31
2023-02-02T23:25:01.030Z,102662.72
2023-02-02T23:27:27.722Z,102653.19
2023-02-02T23:29:54.198Z,102657.50
2023-02-02T23:32:20.780Z,102655.78
2023-02-02T23:34:47.315Z,102649.78
2023-02-02T23:37:13.831Z,102644.63
2023-02-02T23:39:40.308Z,102644.72
2023-02-02T23:42:06.791Z,102652.47
2023-02-02T23:44:33.228Z,102636.91
2023-02-02T23:47:01.782Z,102626.38
2023-02-02T23:49:30.248Z,102644.63
2023-02-02T23:51:56.925Z,102653.19
2023-02-02T23:54:23.499Z,102653.13
2023-02-02T23:56:50.656Z,102653.94
2023-02-02T23:59:17.355Z,102653.88
